Time;durP1;ratioP1;P1;durP2;ratioP2;P2;SDS_P1;SDS_P2;PMS_P1;PMS_P2;Temp;Humidity;BMP_temperature;BMP_pressure;BME280_temperature;BME280_humidity;BME280_pressure;Samples;Min_cycle;Max_cycle;Signal;HPM_P1;HPM_P2
2022/09/15 00:00:34;;;;;;;17.42;12.27;;;;;;;12.17;86.62;97972.88;5037632;28;20422;-69
2022/09/15 00:02:59;;;;;;;17.13;12.90;;;;;;;12.17;86.97;97971.03;5037906;28;20059;-69
2022/09/15 00:05:24;;;;;;;16.58;12.38;;;;;;;12.19;86.69;97969.00;5035212;28;20580;-68
2022/09/15 00:07:49;;;;;;;18.70;13.05;;;;;;;12.22;86.51;97965.19;5056104;28;20410;-69
2022/09/15 00:10:13;;;;;;;16.40;11.95;;;;;;;12.22;86.88;97967.84;5055527;28;20501;-68
2022/09/15 00:12:38;;;;;;;15.18;12.27;;;;;;;12.22;86.56;97971.38;5034713;28;20028;-67
2022/09/15 00:15:05;;;;;;;17.55;12.20;;;;;;;12.26;86.70;97971.91;5035325;28;20051;-68
2022/09/15 00:17:30;;;;;;;18.23;12.80;;;;;;;12.25;86.49;97957.69;5020570;28;20043;-67
2022/09/15 00:19:57;;;;;;;16.52;12.68;;;;;;;12.25;86.53;97972.88;5037202;28;20043;-65
2022/09/15 00:22:22;;;;;;;17.17;12.55;;;;;;;12.26;86.66;97961.22;5052559;28;20036;-66
2022/09/15 00:24:48;;;;;;;17.95;12.90;;;;;;;12.27;86.98;97965.56;5035088;28;20031;-67
2022/09/15 00:27:12;;;;;;;18.05;11.95;;;;;;;12.29;86.40;97956.38;5037444;28;20036;-69
2022/09/15 00:29:37;;;;;;;18.00;12.30;;;;;;;12.32;86.69;97955.19;5050626;28;20046;-71
2022/09/15 00:32:02;;;;;;;23.38;12.80;;;;;;;12.32;87.01;97966.72;5049101;28;20044;-67
2022/09/15 00:34:27;;;;;;;18.40;13.45;;;;;;;12.34;87.14;97967.41;5057095;28;20043;-67
2022/09/15 00:36:52;;;;;;;18.83;13.20;;;;;;;12.35;87.16;97969.09;5056729;28;20460;-68
2022/09/15 00:39:17;;;;;;;18.00;12.65;;;;;;;12.34;87.05;97964.75;5056746;28;20490;-70
2022/09/15 00:41:42;;;;;;;18.85;12.30;;;;;;;12.35;87.19;97962.91;5056622;28;20463;-71
2022/09/15 00:44:22;;;;;;;23.40;14.25;;;;;;;12.42;87.74;97968.44;5056452;28;20044;-70
2022/09/15 00:46:50;;;;;;;15.27;8.90;;;;;;;12.34;87.48;97966.56;5056536;28;20047;-69
2022/09/15 00:49:26;;;;;;;13.27;6.88;;;;;;;12.28;87.15;97962.72;5056491;28;20040;-67
2022/09/15 00:52:06;;;;;;;8.90;4.47;;;;;;;12.22;86.49;97955.34;5038616;28;20075;-69
2022/09/15 00:54:38;;;;;;;5.25;3.53;;;;;;;12.10;86.68;97961.13;5039014;28;20050;-71
2022/09/15 00:57:08;;;;;;;3.13;2.65;;;;;;;12.03;85.91;97960.09;5038512;28;20039;-69
2022/09/15 00:59:36;;;;;;;4.05;2.42;;;;;;;11.96;85.79;97966.06;5056496;28;20181;-74
2022/09/15 01:02:09;;;;;;;3.45;2.63;;;;;;;11.93;86.06;97961.06;5022014;28;20506;-73
2022/09/15 01:04:34;;;;;;;4.43;3.00;;;;;;;11.85;85.99;97955.66;5038845;28;20055;-76
2022/09/15 01:07:02;;;;;;;2.42;2.00;;;;;;;11.80;85.66;97967.81;5039017;28;20044;-71
2022/09/15 01:09:38;;;;;;;2.03;1.92;;;;;;;11.74;84.88;97960.44;5055273;28;20043;-73
2022/09/15 01:12:04;;;;;;;2.15;1.60;;;;;;;11.62;84.88;97960.66;5054653;28;20635;-69
2022/09/15 01:14:28;;;;;;;3.60;2.28;;;;;;;11.55;84.78;97964.13;5054632;28;20111;-70
2022/09/15 01:17:05;;;;;;;2.45;1.83;;;;;;;11.56;85.28;97957.78;5054544;28;20040;-71
2022/09/15 01:20:12;;;;;;;1.98;1.70;;;;;;;11.56;85.58;97960.47;5033683;28;20522;-70
2022/09/15 01:22:55;;;;;;;4.50;1.73;;;;;;;11.46;85.21;97955.22;5035838;28;20075;-69
2022/09/15 01:25:26;;;;;;;3.88;1.95;;;;;;;11.44;86.11;97951.03;5052472;28;20043;-71
2022/09/15 01:28:29;;;;;;;2.85;2.30;;;;;;;11.45;85.80;97953.56;5054876;28;20495;-72
2022/09/15 01:31:12;;;;;;;3.30;1.90;;;;;;;11.39;85.71;97948.03;5025667;28;20051;-71
2022/09/15 01:33:53;;;;;;;3.38;1.92;;;;;;;11.34;85.72;97948.47;5036495;28;20507;-70
2022/09/15 01:36:35;;;;;;;1.80;1.70;;;;;;;11.33;85.18;97953.97;5062124;28;20071;-72
2022/09/15 01:39:23;;;;;;;4.18;2.03;;;;;;;11.23;85.81;97954.91;5055327;28;20036;-72
2022/09/15 01:41:54;;;;;;;2.10;1.90;;;;;;;11.22;85.48;97958.56;4995031;28;20126;-73
2022/09/15 01:44:24;;;;;;;2.00;1.80;;;;;;;11.22;85.91;97955.03;5016366;28;20044;-71
2022/09/15 01:46:56;;;;;;;2.35;1.83;;;;;;;11.23;86.57;97960.22;5025729;28;20487;-71
2022/09/15 01:49:28;;;;;;;2.30;2.10;;;;;;;11.22;86.07;97952.38;5054899;28;20085;-71
2022/09/15 01:51:53;;;;;;;2.25;2.05;;;;;;;11.21;86.28;97954.22;5054040;28;20572;-72
2022/09/15 01:54:31;;;;;;;2.10;1.92;;;;;;;11.26;86.19;97957.25;5051039;28;20050;-72
2022/09/15 01:56:56;;;;;;;4.35;2.75;;;;;;;11.18;86.56;97961.66;5035430;28;20033;-69
2022/09/15 01:59:21;;;;;;;3.03;2.28;;;;;;;11.19;86.30;97958.00;5035630;28;20044;-70
2022/09/15 02:02:10;;;;;;;2.53;2.20;;;;;;;11.27;86.47;97961.59;5053621;28;20036;-70
2022/09/15 02:04:52;;;;;;;4.60;2.80;;;;;;;11.25;86.50;97958.25;5052735;28;20134;-69
2022/09/15 02:08:05;;;;;;;3.58;2.03;;;;;;;11.26;86.27;97954.59;5051414;28;20046;-71
2022/09/15 02:10:42;;;;;;;3.72;2.10;;;;;;;11.28;86.18;97957.13;4991737;28;20440;-71
2022/09/15 02:13:37;;;;;;;2.58;2.30;;;;;;;11.29;86.24;97959.59;4972917;28;20041;-70
2022/09/15 02:16:03;;;;;;;4.32;3.00;;;;;;;11.20;86.55;97955.19;4990856;28;20560;-70
2022/09/15 02:18:35;;;;;;;3.38;2.67;;;;;;;11.25;86.19;97954.75;4958118;28;20073;-71
2022/09/15 02:21:28;;;;;;;4.50;2.28;;;;;;;11.28;86.87;97959.78;4992739;28;20053;-69
2022/09/15 02:23:58;;;;;;;2.83;2.47;;;;;;;11.24;87.07;97953.06;4980338;28;20512;-70
2022/09/15 02:26:28;;;;;;;3.33;2.97;;;;;;;11.23;86.96;97956.72;4989355;28;20819;-69
2022/09/15 02:28:56;;;;;;;4.00;2.28;;;;;;;11.22;87.00;97952.38;4990671;28;20044;-70
2022/09/15 02:31:23;;;;;;;3.20;2.45;;;;;;;11.22;86.61;97958.56;4976463;28;20552;-70
2022/09/15 02:33:57;;;;;;;2.67;2.47;;;;;;;11.26;86.75;97956.44;4992761;28;20048;-69
2022/09/15 02:36:24;;;;;;;2.45;2.25;;;;;;;11.24;86.61;97956.56;4990711;28;20416;-68
2022/09/15 02:38:56;;;;;;;3.95;2.70;;;;;;;11.24;86.64;97953.91;4992242;28;20049;-69
2022/09/15 02:41:22;;;;;;;4.18;3.03;;;;;;;11.22;86.78;97958.56;4992154;28;20049;-69
2022/09/15 02:43:48;;;;;;;4.88;3.25;;;;;;;11.23;86.65;97959.38;5005802;28;20055;-68
2022/09/15 02:46:15;;;;;;;3.72;3.17;;;;;;;11.24;87.38;97958.41;5053509;28;20047;-68
2022/09/15 02:48:39;;;;;;;4.80;3.38;;;;;;;11.24;87.17;97955.72;5054346;28;20498;-69
2022/09/15 02:51:04;;;;;;;4.22;3.83;;;;;;;11.20;86.51;97965.03;5054094;28;20513;-69
2022/09/15 02:53:29;;;;;;;5.75;4.28;;;;;;;11.19;86.44;97956.19;5036093;28;20048;-69
2022/09/15 02:55:53;;;;;;;5.25;4.47;;;;;;;11.19;86.90;97964.19;5054195;28;20102;-68
2022/09/15 02:58:18;;;;;;;5.30;4.78;;;;;;;11.19;86.50;97956.19;5035957;28;20047;-69
2022/09/15 03:00:43;;;;;;;6.10;4.28;;;;;;;11.19;86.79;97958.84;5036185;28;20538;-68
2022/09/15 03:03:09;;;;;;;6.03;4.00;;;;;;;11.20;86.49;97959.69;5054528;28;20396;-75
2022/09/15 03:05:33;;;;;;;4.45;3.70;;;;;;;11.21;86.58;97958.69;5033871;28;20143;-70
2022/09/15 03:07:58;;;;;;;4.68;3.40;;;;;;;11.21;87.05;97956.88;5034212;28;20162;-69
2022/09/15 03:10:24;;;;;;;4.35;3.55;;;;;;;11.22;87.00;97966.56;5016402;28;20045;-72
2022/09/15 03:12:50;;;;;;;4.03;2.90;;;;;;;11.23;87.17;97962.06;5015932;28;20066;-68
2022/09/15 03:15:18;;;;;;;3.38;3.08;;;;;;;11.24;86.84;97964.56;5016403;28;20040;-66
2022/09/15 03:17:45;;;;;;;3.65;3.22;;;;;;;11.19;86.70;97958.84;5015948;28;20406;-67
2022/09/15 03:20:12;;;;;;;3.78;3.33;;;;;;;11.18;87.02;97961.66;5015941;28;20056;-67
2022/09/15 03:22:37;;;;;;;4.75;2.90;;;;;;;11.14;86.91;97963.84;5034105;28;20104;-67
2022/09/15 03:25:04;;;;;;;2.80;2.58;;;;;;;11.12;86.52;97963.13;5034051;28;20044;-68
2022/09/15 03:27:30;;;;;;;3.38;2.72;;;;;;;11.12;87.01;97967.63;5015318;28;20454;-71
2022/09/15 03:29:54;;;;;;;3.30;2.50;;;;;;;11.11;87.06;97966.78;5033526;28;20048;-73
2022/09/15 03:32:19;;;;;;;2.58;1.92;;;;;;;11.09;87.38;97960.78;5016052;28;20032;-70
2022/09/15 03:34:44;;;;;;;3.50;1.85;;;;;;;11.09;86.39;97959.94;5037395;28;20055;-72
2022/09/15 03:37:10;;;;;;;4.05;2.58;;;;;;;11.05;86.84;97964.75;5057600;28;20435;-72
2022/09/15 03:39:35;;;;;;;2.95;1.50;;;;;;;11.04;87.07;97963.09;5057861;28;20051;-73
2022/09/15 03:41:59;;;;;;;5.32;1.50;;;;;;;11.04;86.82;97954.25;5057538;28;20040;-73
2022/09/15 03:44:24;;;;;;;2.50;1.42;;;;;;;11.05;86.96;97967.44;5057852;28;20502;-73
2022/09/15 03:46:49;;;;;;;1.67;1.58;;;;;;;11.05;87.16;97950.59;5057257;28;20039;-72
2022/09/15 03:49:14;;;;;;;2.00;1.33;;;;;;;11.05;87.32;97954.09;5057015;28;20526;-73
2022/09/15 03:51:39;;;;;;;1.48;1.15;;;;;;;11.04;87.43;97951.56;5057669;28;20522;-72
2022/09/15 03:54:04;;;;;;;1.83;1.73;;;;;;;11.03;87.16;97953.41;5039750;28;20063;-73
2022/09/15 03:56:31;;;;;;;2.25;1.20;;;;;;;11.03;86.80;97952.56;5057691;28;20100;-75
2022/09/15 03:58:57;;;;;;;2.08;1.88;;;;;;;11.04;86.75;97951.56;5035153;28;20048;-72
2022/09/15 04:01:22;;;;;;;3.20;1.88;;;;;;;11.03;86.73;97953.41;5018160;28;20048;-73
2022/09/15 04:03:47;;;;;;;1.85;1.60;;;;;;;11.02;87.16;97957.06;5034492;28;20391;-73
2022/09/15 04:06:12;;;;;;;2.58;1.38;;;;;;;11.03;86.69;97958.72;5018164;28;20092;-72
2022/09/15 04:08:37;;;;;;;1.95;1.38;;;;;;;11.02;86.65;97964.22;5034423;28;20117;-72
2022/09/15 04:11:07;;;;;;;1.38;1.27;;;;;;;11.01;86.44;97970.53;5034289;28;20075;-72
2022/09/15 04:13:31;;;;;;;2.22;1.27;;;;;;;10.99;86.17;97961.84;5034473;28;20056;-73
2022/09/15 04:16:04;;;;;;;2.70;1.52;;;;;;;11.01;86.27;97971.38;5034643;28;20048;-72
2022/09/15 04:18:29;;;;;;;3.20;2.05;;;;;;;10.98;86.54;97960.16;5034940;28;20461;-72
2022/09/15 04:20:58;;;;;;;6.03;3.53;;;;;;;11.02;87.35;97972.22;5034394;28;20045;-72
2022/09/15 04:23:23;;;;;;;3.65;1.95;;;;;;;10.99;87.04;97968.03;5034856;28;20131;-71
2022/09/15 04:25:59;;;;;;;2.03;1.50;;;;;;;11.03;86.98;97966.75;5017853;28;20170;-73
2022/09/15 04:28:27;;;;;;;4.68;1.65;;;;;;;10.99;86.78;97973.34;5035650;28;20044;-74
2022/09/15 04:30:53;;;;;;;1.63;1.52;;;;;;;11.01;86.42;97968.72;5035790;28;20108;-71
2022/09/15 04:33:18;;;;;;;3.30;1.65;;;;;;;11.01;86.83;97962.53;5037903;28;20414;-72
2022/09/15 04:35:44;;;;;;;2.58;1.45;;;;;;;11.01;86.90;97966.03;5040024;28;20055;-74
2022/09/15 04:38:10;;;;;;;2.25;1.70;;;;;;;11.04;86.44;97971.09;5038064;28;20402;-72
2022/09/15 04:40:34;;;;;;;1.70;1.60;;;;;;;11.05;87.22;97962.09;5056869;28;20131;-72
2022/09/15 04:42:59;;;;;;;3.13;1.75;;;;;;;11.05;86.96;97962.09;5022114;28;20134;-72
2022/09/15 04:45:24;;;;;;;2.67;1.73;;;;;;;11.04;86.45;97963.09;5038724;28;20461;-72
2022/09/15 04:47:50;;;;;;;2.90;1.83;;;;;;;11.05;87.01;97977.25;5055721;28;20124;-72
2022/09/15 04:50:15;;;;;;;3.20;1.75;;;;;;;11.04;86.71;97962.25;5056421;28;20533;-72
2022/09/15 04:52:39;;;;;;;1.33;1.25;;;;;;;11.05;86.55;97970.09;5056266;28;20490;-72
2022/09/15 04:55:04;;;;;;;2.97;2.60;;;;;;;11.02;86.72;97973.06;5038248;28;20036;-72
2022/09/15 04:57:29;;;;;;;2.70;1.42;;;;;;;11.03;86.45;97969.41;5056303;28;20132;-72
2022/09/15 04:59:53;;;;;;;4.93;1.98;;;;;;;11.04;86.47;97959.56;5055039;28;20043;-72
2022/09/15 05:02:18;;;;;;;3.10;1.58;;;;;;;11.06;86.19;97965.59;5056156;28;20052;-72
2022/09/15 05:04:43;;;;;;;1.70;1.48;;;;;;;11.09;87.12;97973.28;5055941;28;20161;-67
2022/09/15 05:07:07;;;;;;;2.88;2.00;;;;;;;11.09;86.80;97970.59;5055783;28;20044;-66
2022/09/15 05:09:32;;;;;;;3.40;1.70;;;;;;;11.08;86.80;97976.94;5056692;28;20040;-67
2022/09/15 05:11:57;;;;;;;4.80;1.55;;;;;;;11.05;86.27;97969.25;5037870;28;20040;-68
2022/09/15 05:14:22;;;;;;;2.17;1.45;;;;;;;11.06;86.27;97973.59;5056119;28;20056;-69
2022/09/15 05:16:46;;;;;;;1.98;1.60;;;;;;;11.01;86.13;97976.72;5037671;28;20050;-68
2022/09/15 05:19:11;;;;;;;2.65;1.67;;;;;;;11.03;86.14;97971.22;5055898;28;20040;-68
2022/09/15 05:21:36;;;;;;;2.42;1.95;;;;;;;11.05;86.70;97971.91;5056050;28;20048;-68
2022/09/15 05:24:00;;;;;;;3.50;1.70;;;;;;;11.06;86.50;97977.06;5056121;28;20044;-67
2022/09/15 05:26:28;;;;;;;4.03;1.55;;;;;;;11.09;86.31;97968.78;5055313;28;20040;-66
2022/09/15 05:28:54;;;;;;;2.70;1.77;;;;;;;11.12;86.42;97968.47;5055774;28;20063;-67
2022/09/15 05:31:25;;;;;;;1.55;1.40;;;;;;;11.15;86.27;97978.00;5037311;28;20040;-67
2022/09/15 05:33:51;;;;;;;1.67;1.38;;;;;;;11.13;86.26;97972.81;5055839;28;20511;-67
2022/09/15 05:36:17;;;;;;;1.42;1.20;;;;;;;11.14;86.06;97969.16;5037615;28;20503;-67
2022/09/15 05:38:42;;;;;;;2.13;1.60;;;;;;;11.16;85.88;97977.84;5037324;28;20525;-68
2022/09/15 05:41:10;;;;;;;1.58;1.48;;;;;;;11.20;85.91;97973.03;5037283;28;20047;-67
2022/09/15 05:43:36;;;;;;;4.82;1.75;;;;;;;11.20;85.76;97973.03;5055440;28;20452;-66
2022/09/15 05:46:01;;;;;;;1.42;1.33;;;;;;;11.19;85.95;97974.84;5055904;28;20520;-68
2022/09/15 05:48:27;;;;;;;2.92;1.83;;;;;;;11.21;85.53;97974.72;5037347;28;20067;-68
2022/09/15 05:50:53;;;;;;;1.77;1.15;;;;;;;11.21;85.84;97975.53;5055430;28;20048;-69
2022/09/15 05:53:18;;;;;;;2.33;1.60;;;;;;;11.24;86.19;97971.75;5055633;28;20032;-68
2022/09/15 05:55:43;;;;;;;2.25;1.25;;;;;;;11.23;85.79;97981.56;5037469;28;20097;-68
2022/09/15 05:58:08;;;;;;;2.13;1.65;;;;;;;11.21;85.67;97978.22;5054967;28;20177;-69
2022/09/15 06:00:34;;;;;;;2.13;1.73;;;;;;;11.23;85.85;97976.25;5055056;28;20068;-68
2022/09/15 06:02:58;;;;;;;3.08;2.05;;;;;;;11.24;85.94;97979.75;5053999;28;20039;-68
2022/09/15 06:05:23;;;;;;;3.95;2.28;;;;;;;11.27;86.13;97990.94;5036730;28;20121;-69
2022/09/15 06:07:47;;;;;;;3.83;2.67;;;;;;;11.27;86.15;97977.63;5054962;28;20104;-68
2022/09/15 06:10:12;;;;;;;4.88;2.28;;;;;;;11.28;85.96;97979.28;5037098;28;20522;-68
2022/09/15 06:12:37;;;;;;;2.90;1.92;;;;;;;11.29;85.57;97986.28;5053751;28;20159;-68
2022/09/15 06:15:01;;;;;;;3.05;2.30;;;;;;;11.31;86.05;97988.78;5055366;28;20039;-70
2022/09/15 06:17:31;;;;;;;2.20;2.00;;;;;;;11.36;85.20;97985.69;5055127;28;20082;-69
2022/09/15 06:19:56;;;;;;;4.82;1.83;;;;;;;11.35;86.35;97984.84;5036907;28;20067;-67
2022/09/15 06:22:21;;;;;;;6.45;1.92;;;;;;;11.37;85.78;97984.69;5054978;28;20046;-68
2022/09/15 06:24:46;;;;;;;3.40;1.73;;;;;;;11.39;85.32;97982.72;5054482;28;20044;-67
2022/09/15 06:27:10;;;;;;;11.23;6.18;;;;;;;11.40;85.55;97985.19;5036520;28;20504;-67
2022/09/15 06:29:35;;;;;;;9.20;6.60;;;;;;;11.44;85.01;97991.06;5019421;28;20028;-67
2022/09/15 06:32:01;;;;;;;10.50;6.88;;;;;;;11.47;85.27;97998.78;5054036;28;20068;-66
2022/09/15 06:34:26;;;;;;;12.27;5.80;;;;;;;11.45;85.51;97990.91;5019462;28;20047;-67
2022/09/15 06:36:51;;;;;;;11.35;4.75;;;;;;;11.44;85.10;97999.06;5058622;28;20040;-69
2022/09/15 06:39:15;;;;;;;3.45;2.88;;;;;;;11.43;85.25;98006.22;5048122;28;20466;-69
2022/09/15 06:41:40;;;;;;;6.80;4.30;;;;;;;11.44;85.50;98002.56;5055108;28;20043;-69
2022/09/15 06:44:05;;;;;;;10.38;5.32;;;;;;;11.48;85.20;98000.44;5019839;28;20100;-69
2022/09/15 06:46:29;;;;;;;6.72;3.72;;;;;;;11.48;85.58;98000.44;5054602;28;20048;-69
2022/09/15 06:48:54;;;;;;;7.55;4.47;;;;;;;11.43;84.81;98006.22;5036227;28;20044;-67
2022/09/15 06:51:21;;;;;;;12.57;5.97;;;;;;;11.47;84.73;98009.44;5019583;28;20061;-69
2022/09/15 06:53:46;;;;;;;5.68;3.47;;;;;;;11.47;85.12;98010.28;5053985;28;20076;-69
2022/09/15 06:56:13;;;;;;;6.60;4.07;;;;;;;11.51;85.03;98010.81;5054542;28;20087;-68
2022/09/15 06:58:40;;;;;;;7.68;4.20;;;;;;;11.56;84.87;98011.19;5054275;28;20048;-68
2022/09/15 07:01:11;;;;;;;3.85;3.45;;;;;;;11.61;85.35;98009.72;5035932;28;20042;-68
2022/09/15 07:03:37;;;;;;;4.25;3.20;;;;;;;11.70;85.48;98013.28;5053878;28;20040;-69
2022/09/15 07:06:03;;;;;;;3.92;2.88;;;;;;;11.76;85.49;98022.50;5019267;28;20064;-69
2022/09/15 07:08:28;;;;;;;4.05;2.38;;;;;;;11.80;85.14;98011.38;5054121;28;20115;-68
2022/09/15 07:10:53;;;;;;;5.15;3.15;;;;;;;11.84;85.05;98012.75;5057009;28;20464;-69
2022/09/15 07:13:18;;;;;;;4.57;3.08;;;;;;;11.87;85.31;98017.75;5058006;28;20116;-70
2022/09/15 07:15:54;;;;;;;5.50;3.83;;;;;;;11.93;84.54;98019.81;5040129;28;20101;-68
2022/09/15 07:18:18;;;;;;;5.10;3.25;;;;;;;11.92;84.76;98023.47;5039390;28;20135;-68
2022/09/15 07:20:43;;;;;;;10.20;3.30;;;;;;;11.93;84.56;98022.47;5058559;28;20131;-70
2022/09/15 07:23:08;;;;;;;8.18;4.95;;;;;;;11.95;84.35;98017.00;5060171;28;20048;-67
2022/09/15 07:25:33;;;;;;;5.80;3.75;;;;;;;11.99;84.32;98021.84;5058031;28;20130;-67
2022/09/15 07:27:57;;;;;;;7.22;3.30;;;;;;;12.04;84.33;98016.03;5039950;28;20456;-68
2022/09/15 07:30:22;;;;;;;3.00;2.30;;;;;;;12.08;83.59;98016.53;5059116;28;20104;-69
2022/09/15 07:32:47;;;;;;;3.58;2.53;;;;;;;12.11;84.08;98019.72;5025865;28;20039;-67
2022/09/15 07:35:11;;;;;;;6.28;2.20;;;;;;;12.11;83.15;98018.91;5063457;28;20449;-69
2022/09/15 07:37:36;;;;;;;4.70;2.40;;;;;;;12.08;82.57;98017.38;5060738;28;20056;-64
2022/09/15 07:40:01;;;;;;;2.13;1.95;;;;;;;12.13;83.55;98023.09;5058080;28;20079;-64
2022/09/15 07:42:25;;;;;;;5.78;3.10;;;;;;;12.15;83.34;98026.44;5057538;28;20052;-66
2022/09/15 07:44:50;;;;;;;5.70;2.33;;;;;;;12.16;83.94;98033.47;5039496;28;20074;-67
2022/09/15 07:47:15;;;;;;;5.60;2.80;;;;;;;12.20;83.74;98037.47;5057667;28;20104;-66
2022/09/15 07:49:41;;;;;;;2.00;1.80;;;;;;;12.26;83.93;98030.69;5057774;28;20039;-67
2022/09/15 07:52:05;;;;;;;3.72;1.80;;;;;;;12.29;83.73;98030.38;5059027;28;20048;-68
2022/09/15 07:54:31;;;;;;;4.57;2.80;;;;;;;12.32;83.29;98038.03;5059699;28;20050;-67
2022/09/15 07:56:55;;;;;;;2.40;2.08;;;;;;;12.32;82.79;98030.03;5059126;28;20413;-67
2022/09/15 07:59:20;;;;;;;4.68;2.05;;;;;;;12.31;82.31;98031.03;5058456;28;20036;-67
2022/09/15 08:01:45;;;;;;;10.45;5.30;;;;;;;12.29;82.96;98038.38;5056863;28;20074;-68
2022/09/15 08:04:10;;;;;;;5.50;3.25;;;;;;;12.31;82.62;98042.53;5057278;28;20131;-68
2022/09/15 08:06:34;;;;;;;3.92;2.97;;;;;;;12.31;82.76;98036.34;5038854;28;20134;-67
2022/09/15 08:09:00;;;;;;;2.63;2.03;;;;;;;12.32;82.65;98033.53;5039537;28;20031;-67
2022/09/15 08:11:25;;;;;;;2.47;2.17;;;;;;;12.32;82.18;98038.88;5038923;28;20035;-68
2022/09/15 08:13:51;;;;;;;4.82;3.63;;;;;;;12.32;82.26;98036.22;5057357;28;20044;-67
2022/09/15 08:16:21;;;;;;;6.63;3.92;;;;;;;12.40;82.71;98048.78;5057598;28;20518;-67
2022/09/15 08:18:46;;;;;;;7.18;3.80;;;;;;;12.44;82.68;98050.13;5039424;28;20098;-67
2022/09/15 08:21:19;;;;;;;7.07;3.05;;;;;;;12.54;82.58;98048.16;5022937;28;20040;-67
2022/09/15 08:23:43;;;;;;;4.15;2.88;;;;;;;12.59;82.79;98045.03;5057714;28;20055;-67
2022/09/15 08:26:10;;;;;;;3.00;2.65;;;;;;;12.63;82.36;98049.91;5057339;28;20097;-68
2022/09/15 08:28:36;;;;;;;2.92;2.50;;;;;;;12.67;82.18;98042.38;5057153;28;20118;-65
2022/09/15 08:31:03;;;;;;;2.67;2.30;;;;;;;12.72;82.48;98040.91;5038820;28;20119;-67
2022/09/15 08:33:28;;;;;;;9.82;5.22;;;;;;;12.74;82.00;98048.75;5056497;28;20059;-67
2022/09/15 08:35:58;;;;;;;3.50;2.70;;;;;;;12.78;81.48;98038.56;5057480;28;20526;-66
2022/09/15 08:38:23;;;;;;;4.18;2.65;;;;;;;12.76;81.41;98045.91;5055366;28;20044;-66
2022/09/15 08:40:48;;;;;;;9.77;5.30;;;;;;;12.70;80.86;98042.88;5056819;28;20031;-66
2022/09/15 08:43:22;;;;;;;13.20;6.90;;;;;;;12.70;81.14;98047.41;5038937;28;20476;-66
2022/09/15 08:45:54;;;;;;;10.10;5.13;;;;;;;12.68;81.11;98047.56;5058843;28;20466;-66
2022/09/15 08:48:25;;;;;;;8.63;4.55;;;;;;;12.68;81.06;98057.41;5068565;28;20058;-67
2022/09/15 08:50:53;;;;;;;4.75;3.55;;;;;;;12.66;81.66;98046.03;5058490;28;20039;-67
2022/09/15 08:53:24;;;;;;;5.35;3.70;;;;;;;12.71;81.93;98049.06;5060990;28;20108;-67
2022/09/15 08:55:52;;;;;;;4.45;2.90;;;;;;;12.70;82.06;98058.94;5062109;28;20036;-66
2022/09/15 08:58:22;;;;;;;7.63;3.33;;;;;;;12.65;82.07;98049.69;5061351;28;20055;-66
2022/09/15 09:00:50;;;;;;;6.22;3.35;;;;;;;12.65;81.76;98050.53;5071834;28;20048;-69
2022/09/15 09:03:27;;;;;;;6.95;3.25;;;;;;;12.66;81.86;98049.53;5067294;28;20413;-68
2022/09/15 09:06:06;;;;;;;5.93;4.35;;;;;;;12.70;82.17;98055.41;5064140;28;20048;-67
2022/09/15 09:08:46;;;;;;;5.65;3.72;;;;;;;12.81;81.52;98067.66;5062670;28;20039;-66
2022/09/15 09:11:18;;;;;;;4.60;3.15;;;;;;;12.78;81.18;98057.28;5060176;28;20503;-67
2022/09/15 09:13:42;;;;;;;5.95;3.95;;;;;;;12.81;80.97;98060.47;5059009;28;20040;-67
2022/09/15 09:16:38;;;;;;;3.00;2.65;;;;;;;12.90;80.65;98061.31;5065943;28;20035;-71
2022/09/15 09:19:12;;;;;;;5.88;2.85;;;;;;;12.86;80.98;98068.84;5027956;28;20039;-67
2022/09/15 09:21:41;;;;;;;5.23;2.57;;;;;;;12.88;80.74;98074.84;5063600;28;20380;-67
2022/09/15 09:24:16;;;;;;;4.32;3.22;;;;;;;12.88;80.28;98071.34;5058279;28;20051;-68
2022/09/15 09:26:42;;;;;;;9.85;4.82;;;;;;;12.88;80.69;98076.69;5060498;28;20050;-68
2022/09/15 09:29:17;;;;;;;7.75;4.38;;;;;;;12.93;80.48;98071.72;5055600;28;20040;-67
2022/09/15 09:31:44;;;;;;;5.00;3.50;;;;;;;12.92;80.32;98070.03;5037564;28;20506;-67
2022/09/15 09:34:19;;;;;;;8.52;3.50;;;;;;;12.87;79.63;98067.00;5055086;28;20044;-67
2022/09/15 09:36:44;;;;;;;4.78;2.97;;;;;;;12.91;80.50;98063.00;5037272;28;20130;-67
2022/09/15 09:39:13;;;;;;;5.65;3.42;;;;;;;13.01;80.63;98074.41;5055340;28;20134;-67
2022/09/15 09:41:40;;;;;;;8.43;5.03;;;;;;;13.08;79.97;98075.44;5041148;28;20468;-66
2022/09/15 09:44:13;;;;;;;8.43;4.45;;;;;;;13.18;79.71;98067.28;5022827;28;20097;-67
2022/09/15 09:46:38;;;;;;;7.25;4.10;;;;;;;13.15;79.87;98067.63;5043906;28;20044;-66
2022/09/15 09:49:26;;;;;;;9.50;5.30;;;;;;;13.22;79.16;98080.16;5063962;28;20097;-67
2022/09/15 09:52:01;;;;;;;5.45;3.72;;;;;;;13.25;79.31;98077.16;5039951;28;20517;-67
2022/09/15 09:54:28;;;;;;;4.85;3.78;;;;;;;13.22;79.43;98080.16;5038600;28;20047;-67
2022/09/15 09:56:54;;;;;;;8.15;6.00;;;;;;;13.23;79.09;98078.31;5055817;28;20036;-67
2022/09/15 09:59:39;;;;;;;6.72;4.72;;;;;;;13.32;78.98;98085.34;5036880;28;20050;-67
2022/09/15 10:02:05;;;;;;;6.13;4.68;;;;;;;13.28;79.10;98082.19;5033860;28;20414;-66
2022/09/15 10:04:30;;;;;;;5.47;3.92;;;;;;;13.30;78.98;98082.03;5032222;28;20036;-65
2022/09/15 10:06:55;;;;;;;5.93;3.88;;;;;;;13.31;79.15;98079.19;5050671;28;20048;-68
2022/09/15 10:09:20;;;;;;;6.15;3.80;;;;;;;13.32;79.09;98082.69;5015674;28;20403;-69
2022/09/15 10:11:51;;;;;;;7.35;4.47;;;;;;;13.36;78.43;98086.72;5037939;28;20387;-68
2022/09/15 10:14:29;;;;;;;4.65;3.70;;;;;;;13.37;78.52;98088.41;5037732;28;20071;-66
2022/09/15 10:17:16;;;;;;;8.60;3.90;;;;;;;13.37;78.43;98089.22;5056133;28;20039;-67
2022/09/15 10:19:47;;;;;;;10.02;4.95;;;;;;;13.31;78.71;98089.06;5036217;28;20067;-67
2022/09/15 10:22:38;;;;;;;9.07;4.25;;;;;;;13.35;78.77;98087.72;5035841;28;20487;-67
2022/09/15 10:25:22;;;;;;;5.28;3.88;;;;;;;13.44;78.69;98097.44;5051950;28;20044;-67
2022/09/15 10:28:02;;;;;;;8.52;4.10;;;;;;;13.48;78.97;98095.28;5052151;28;20035;-68
2022/09/15 10:30:27;;;;;;;7.57;5.22;;;;;;;13.43;78.91;98093.91;5051656;28;20501;-68
2022/09/15 10:32:51;;;;;;;5.20;4.30;;;;;;;13.46;78.79;98090.06;5019038;28;20521;-65
2022/09/15 10:35:19;;;;;;;6.72;4.18;;;;;;;13.52;78.39;98096.63;5054437;28;20414;-67
2022/09/15 10:38:16;;;;;;;5.45;4.13;;;;;;;13.55;78.38;98096.28;5049260;28;20043;-67
2022/09/15 10:41:29;;;;;;;5.50;4.05;;;;;;;13.51;78.01;98105.66;5053999;28;20117;-67
2022/09/15 10:44:13;;;;;;;6.57;4.40;;;;;;;13.49;78.50;98097.78;5001607;28;20127;-66
2022/09/15 10:46:43;;;;;;;7.22;5.32;;;;;;;13.30;78.76;98096.25;5039653;28;20055;-70
2022/09/15 10:49:27;;;;;;;7.97;5.78;;;;;;;13.34;79.14;98100.25;5023742;28;20055;-66
2022/09/15 10:52:25;;;;;;;7.85;5.78;;;;;;;13.25;78.98;98100.41;5040415;28;20693;-66
2022/09/15 10:55:01;;;;;;;9.02;6.18;;;;;;;13.09;78.77;98103.88;5060823;28;20047;-66
2022/09/15 10:57:53;;;;;;;10.25;6.30;;;;;;;13.11;79.46;98107.19;5035257;28;20040;-65
2022/09/15 11:00:22;;;;;;;7.90;5.72;;;;;;;13.01;79.77;98109.19;5059356;28;20515;-65
2022/09/15 11:02:47;;;;;;;6.63;4.95;;;;;;;12.91;79.59;98111.16;5040827;28;20052;-73
2022/09/15 11:05:40;;;;;;;9.05;6.55;;;;;;;12.94;79.62;98110.84;5041566;28;20125;-72
2022/09/15 11:08:40;;;;;;;6.00;4.75;;;;;;;12.93;79.62;98114.50;5043146;28;20044;-72
2022/09/15 11:11:12;;;;;;;9.00;5.35;;;;;;;12.85;80.07;98123.34;5038723;28;20052;-73
2022/09/15 11:14:03;;;;;;;7.38;5.45;;;;;;;12.91;80.51;98124.53;5038756;28;20098;-72
2022/09/15 11:16:47;;;;;;;7.97;6.20;;;;;;;12.90;80.51;98114.81;5038560;28;20048;-72
2022/09/15 11:19:40;;;;;;;8.77;6.03;;;;;;;13.02;80.99;98124.22;5037914;28;20056;-72
2022/09/15 11:22:16;;;;;;;9.82;6.47;;;;;;;13.09;80.78;98115.38;5003475;28;20466;-70
2022/09/15 11:24:47;;;;;;;8.07;6.00;;;;;;;13.14;80.75;98131.00;5020073;28;20044;-73
2022/09/15 11:27:18;;;;;;;9.73;6.85;;;;;;;13.19;80.46;98130.53;5038039;28;20044;-74
2022/09/15 11:29:45;;;;;;;11.07;6.57;;;;;;;13.19;80.52;98122.50;5037917;28;20491;-71
2022/09/15 11:32:16;;;;;;;8.38;6.05;;;;;;;13.23;80.15;98129.16;5038234;28;20075;-71
2022/09/15 11:34:52;;;;;;;9.70;6.07;;;;;;;13.28;79.86;98134.88;5037918;28;20044;-68
2022/09/15 11:37:25;;;;;;;9.43;6.72;;;;;;;13.29;80.12;98136.56;5044185;28;20048;-66
2022/09/15 11:40:22;;;;;;;8.77;6.82;;;;;;;13.35;79.55;98139.41;5058026;28;20459;-64
2022/09/15 11:42:59;;;;;;;7.85;5.97;;;;;;;13.32;79.23;98133.53;5055129;28;20043;-66